createdAt,value
2018-06-25T00:00:16.802Z,63.8
2018-06-25T00:01:17.144Z,63.9
2018-06-25T00:02:16.403Z,63.8
2018-06-25T00:03:16.656Z,64.2
2018-06-25T00:04:16.927Z,64.1
2018-06-25T00:05:17.184Z,64.2
2018-06-25T00:06:16.450Z,64.3
2018-06-25T00:07:16.717Z,64.5
2018-06-25T00:08:16.978Z,64.7
2018-06-25T00:09:17.246Z,65.0
2018-06-25T00:10:16.512Z,65.0
2018-06-25T00:11:16.561Z,65.1
2018-06-25T00:12:16.830Z,65.3
2018-06-25T00:13:17.095Z,65.5
2018-06-25T00:14:16.352Z,65.3
2018-06-25T00:15:16.618Z,65.4
2018-06-25T00:16:16.871Z,65.7
2018-06-25T00:17:17.129Z,65.5
2018-06-25T00:18:16.389Z,65.5
2018-06-25T00:19:16.644Z,65.7
2018-06-25T00:20:16.909Z,65.8
2018-06-25T00:21:16.947Z,65.8
2018-06-25T00:22:17.203Z,66.0
2018-06-25T00:23:16.464Z,66.0
2018-06-25T00:24:16.724Z,66.1
2018-06-25T00:25:16.986Z,66.1
2018-06-25T00:26:17.240Z,66.1
2018-06-25T00:27:16.491Z,66.4
2018-06-25T00:28:16.741Z,66.3
2018-06-25T00:29:17.002Z,66.1
2018-06-25T00:30:16.278Z,66.5
2018-06-25T00:31:16.318Z,66.7
2018-06-25T00:32:16.578Z,66.7
2018-06-25T00:33:16.839Z,67.0
2018-06-25T00:34:17.105Z,67.1
2018-06-25T00:35:16.388Z,67.2
2018-06-25T00:36:16.644Z,66.9
2018-06-25T00:37:16.903Z,66.8
2018-06-25T00:38:17.159Z,66.8
2018-06-25T00:39:16.413Z,66.8
2018-06-25T00:40:16.681Z,67.0
2018-06-25T00:41:16.713Z,67.5
2018-06-25T00:42:17.172Z,67.2
2018-06-25T00:43:16.440Z,67.3
2018-06-25T00:44:16.701Z,67.5
2018-06-25T00:45:16.967Z,67.3
2018-06-25T00:46:17.220Z,67.2
2018-06-25T00:47:16.479Z,67.3
2018-06-25T00:48:16.740Z,67.3
2018-06-25T00:49:17.005Z,67.6
2018-06-25T00:50:16.286Z,67.7
2018-06-25T00:51:16.306Z,67.7
2018-06-25T00:52:16.565Z,67.8
2018-06-25T00:53:16.824Z,67.8
2018-06-25T00:54:17.287Z,67.8
2018-06-25T00:55:16.543Z,68.0
2018-06-25T00:56:16.800Z,68.0
2018-06-25T00:57:17.056Z,67.9
2018-06-25T00:58:16.320Z,68.1
2018-06-25T00:59:16.587Z,68.2
2018-06-25T01:00:16.861Z,68.1
2018-06-25T01:01:16.907Z,68.3
2018-06-25T01:02:17.163Z,68.3
2018-06-25T01:03:16.427Z,68.5
2018-06-25T01:04:16.694Z,68.6
2018-06-25T01:05:17.226Z,68.7
2018-06-25T01:06:16.497Z,68.8
2018-06-25T01:07:16.750Z,68.9
2018-06-25T01:08:16.998Z,69.0
2018-06-25T01:09:16.266Z,68.8
2018-06-25T01:10:16.542Z,68.9
2018-06-25T01:11:16.585Z,68.8
2018-06-25T01:12:16.851Z,69.0
2018-06-25T01:13:17.107Z,69.0
2018-06-25T01:14:16.361Z,69.1
2018-06-25T01:15:16.640Z,69.3
2018-06-25T01:16:16.902Z,69.3
2018-06-25T01:17:17.178Z,69.3
2018-06-25T01:18:16.444Z,69.3
2018-06-25T01:19:16.709Z,69.3
2018-06-25T01:20:16.968Z,69.4
2018-06-25T01:21:17.020Z,69.6
2018-06-25T01:22:16.286Z,69.8
2018-06-25T01:23:16.548Z,69.6
2018-06-25T01:24:16.805Z,69.7
2018-06-25T01:25:17.077Z,69.8
2018-06-25T01:26:16.330Z,70.0
2018-06-25T01:27:16.594Z,69.8
2018-06-25T01:28:16.850Z,69.7
2018-06-25T01:29:17.110Z,69.7
2018-06-25T01:30:16.381Z,69.8
2018-06-25T01:31:16.415Z,69.7
2018-06-25T01:32:16.678Z,69.8
2018-06-25T01:33:16.938Z,70.0
2018-06-25T01:34:17.202Z,70.1
2018-06-25T01:35:16.484Z,70.0
2018-06-25T01:36:16.759Z,69.8
2018-06-25T01:37:17.036Z,69.9
2018-06-25T01:38:16.294Z,69.8
2018-06-25T01:39:16.548Z,69.8
2018-06-25T01:40:16.818Z,69.9
2018-06-25T01:41:16.854Z,69.8
2018-06-25T01:42:17.112Z,69.8
2018-06-25T01:43:16.375Z,69.8
2018-06-25T01:44:16.631Z,69.9
2018-06-25T01:45:16.887Z,70.0
2018-06-25T01:46:17.146Z,70.0
2018-06-25T01:47:16.412Z,70.0
2018-06-25T01:48:16.676Z,70.0
2018-06-25T01:49:16.941Z,70.2
2018-06-25T01:50:17.212Z,70.3
2018-06-25T01:51:17.240Z,70.2
2018-06-25T01:52:16.498Z,70.2
2018-06-25T01:53:16.755Z,70.3
2018-06-25T01:54:17.014Z,70.4
2018-06-25T01:55:16.274Z,70.5
2018-06-25T01:56:16.539Z,70.4
2018-06-25T01:57:16.797Z,70.4
2018-06-25T01:58:17.071Z,70.6
2018-06-25T01:59:16.330Z,70.6
2018-06-25T02:00:16.597Z,70.5
2018-06-25T02:01:16.648Z,70.7
2018-06-25T02:02:16.915Z,70.8
2018-06-25T02:03:17.183Z,71.0
2018-06-25T02:04:16.444Z,71.1
2018-06-25T02:05:16.709Z,71.1
2018-06-25T02:06:16.964Z,71.0
2018-06-25T02:07:17.220Z,71.2
2018-06-25T02:08:16.473Z,71.3
2018-06-25T02:09:16.729Z,71.2
2018-06-25T02:10:17.002Z,71.3
2018-06-25T02:11:17.034Z,71.5
2018-06-25T02:12:16.300Z,71.3
2018-06-25T02:13:16.565Z,71.3
2018-06-25T02:14:16.821Z,71.4
2018-06-25T02:15:17.088Z,71.5
2018-06-25T02:16:16.351Z,71.4
2018-06-25T02:17:16.610Z,71.5
2018-06-25T02:18:16.873Z,71.7
2018-06-25T02:19:17.124Z,71.9
2018-06-25T02:20:16.384Z,72.5
2018-06-25T02:21:16.436Z,71.9
2018-06-25T02:22:16.708Z,71.8
2018-06-25T02:23:16.970Z,71.8
2018-06-25T02:24:17.231Z,72.0
2018-06-25T02:25:16.488Z,72.2
2018-06-25T02:26:16.744Z,72.2
2018-06-25T02:27:17.020Z,72.2
2018-06-25T02:28:16.275Z,72.5
2018-06-25T02:29:16.544Z,72.3
2018-06-25T02:30:16.802Z,72.2
2018-06-25T02:31:16.869Z,72.3
2018-06-25T02:32:17.132Z,72.8
2018-06-25T02:33:16.395Z,72.5
2018-06-25T02:34:16.658Z,72.2
2018-06-25T02:35:16.927Z,72.3
2018-06-25T02:36:17.315Z,72.3
2018-06-25T02:37:16.568Z,72.5
2018-06-25T02:38:16.824Z,72.7
2018-06-25T02:39:17.086Z,72.6
2018-06-25T02:40:16.368Z,72.3
2018-06-25T02:41:16.390Z,72.4
2018-06-25T02:42:16.660Z,72.5
2018-06-25T02:43:16.922Z,72.7
2018-06-25T02:44:17.190Z,72.6
2018-06-25T02:45:16.451Z,72.6
2018-06-25T02:46:16.713Z,72.7
2018-06-25T02:47:16.990Z,72.8
2018-06-25T02:48:16.259Z,72.8
2018-06-25T02:49:16.525Z,72.7
2018-06-25T02:50:16.800Z,72.8
2018-06-25T02:51:16.833Z,73.1
2018-06-25T02:52:17.089Z,72.8
2018-06-25T02:53:16.346Z,72.8
2018-06-25T02:54:16.607Z,72.7
2018-06-25T02:55:16.881Z,72.9
2018-06-25T02:56:17.140Z,72.8
2018-06-25T02:57:16.403Z,72.8
2018-06-25T02:58:16.662Z,72.9
2018-06-25T02:59:17.133Z,72.9
2018-06-25T03:00:16.483Z,73.4
2018-06-25T03:01:16.526Z,73.2
2018-06-25T03:02:16.803Z,73.2
2018-06-25T03:03:17.065Z,73.1
2018-06-25T03:04:16.330Z,73.2
2018-06-25T03:05:16.611Z,73.5
2018-06-25T03:06:16.874Z,73.2
2018-06-25T03:07:17.141Z,73.4
2018-06-25T03:08:16.400Z,73.3
2018-06-25T03:09:16.662Z,73.3
2018-06-25T03:10:16.921Z,73.2
2018-06-25T03:11:16.967Z,73.4
2018-06-25T03:12:17.231Z,73.5
2018-06-25T03:13:16.493Z,73.5
2018-06-25T03:14:16.745Z,73.4
2018-06-25T03:15:17.014Z,73.4
2018-06-25T03:16:16.273Z,73.4
2018-06-25T03:17:16.544Z,73.2
2018-06-25T03:18:16.822Z,73.8
2018-06-25T03:19:17.087Z,73.8
2018-06-25T03:20:16.352Z,73.7
2018-06-25T03:21:16.379Z,73.6
2018-06-25T03:22:16.649Z,73.7
2018-06-25T03:23:16.914Z,73.8
2018-06-25T03:24:17.174Z,73.8
2018-06-25T03:25:16.437Z,73.5
2018-06-25T03:26:16.700Z,73.7
2018-06-25T03:27:16.966Z,73.7
2018-06-25T03:28:17.244Z,74.4
2018-06-25T03:29:16.502Z,74.5
2018-06-25T03:30:16.774Z,75.2
2018-06-25T03:31:16.834Z,75.8
2018-06-25T03:32:17.093Z,75.8
2018-06-25T03:33:16.347Z,75.8
2018-06-25T03:34:16.605Z,75.7
2018-06-25T03:35:16.873Z,75.7
2018-06-25T03:36:17.134Z,75.7
2018-06-25T03:37:16.389Z,75.7
2018-06-25T03:38:16.645Z,75.5
2018-06-25T03:39:16.908Z,75.5
2018-06-25T03:40:17.185Z,75.5
2018-06-25T03:41:17.214Z,75.5
2018-06-25T03:42:16.480Z,75.3
2018-06-25T03:43:16.812Z,75.3
2018-06-25T03:44:17.098Z,75.3
2018-06-25T03:45:16.354Z,75.2
2018-06-25T03:46:16.618Z,75.0
2018-06-25T03:47:16.883Z,75.0
2018-06-25T03:48:17.158Z,75.0
2018-06-25T03:49:16.427Z,75.0
2018-06-25T03:50:16.700Z,74.9
2018-06-25T03:51:16.739Z,75.0
2018-06-25T03:52:17.006Z,74.9
2018-06-25T03:53:16.270Z,75.0
2018-06-25T03:54:16.546Z,75.2
2018-06-25T03:55:16.813Z,74.9
2018-06-25T03:56:17.078Z,75.0
2018-06-25T03:57:16.337Z,75.1
2018-06-25T03:58:16.628Z,74.9
2018-06-25T03:59:16.886Z,75.1
2018-06-25T04:00:17.180Z,75.1
2018-06-25T04:01:16.262Z,75.0
2018-06-25T04:02:16.530Z,75.2
2018-06-25T04:03:16.786Z,75.1
2018-06-25T04:04:17.052Z,75.1
2018-06-25T04:05:16.439Z,75.1
2018-06-25T04:06:16.698Z,75.0
2018-06-25T04:07:16.955Z,75.2
2018-06-25T04:08:17.211Z,75.3
2018-06-25T04:09:16.474Z,75.1
2018-06-25T04:10:16.739Z,75.1
2018-06-25T04:11:16.786Z,75.0
2018-06-25T04:12:17.056Z,75.1
2018-06-25T04:13:16.318Z,75.0
2018-06-25T04:14:16.572Z,75.0
2018-06-25T04:15:16.849Z,75.1
2018-06-25T04:16:17.124Z,75.0
2018-06-25T04:17:16.384Z,74.7
2018-06-25T04:18:16.655Z,74.7
2018-06-25T04:19:16.919Z,74.7
2018-06-25T04:20:17.188Z,74.7
2018-06-25T04:21:17.233Z,74.8
2018-06-25T04:22:16.491Z,74.8
2018-06-25T04:23:16.754Z,74.8
2018-06-25T04:24:17.025Z,74.8
2018-06-25T04:25:16.300Z,74.6
2018-06-25T04:26:16.589Z,74.5
2018-06-25T04:27:16.846Z,74.5
2018-06-25T04:28:17.108Z,74.6
2018-06-25T04:29:16.370Z,74.6
2018-06-25T04:30:16.633Z,74.4
2018-06-25T04:31:16.676Z,74.8
2018-06-25T04:32:16.941Z,74.6
2018-06-25T04:33:17.189Z,74.4
2018-06-25T04:34:16.456Z,74.3
2018-06-25T04:35:16.716Z,74.3
2018-06-25T04:36:16.977Z,74.1
2018-06-25T04:37:17.235Z,74.3
2018-06-25T04:38:16.507Z,74.2
2018-06-25T04:39:16.766Z,74.2
2018-06-25T04:40:17.137Z,74.2
2018-06-25T04:41:17.058Z,74.4
2018-06-25T04:42:16.323Z,74.2
2018-06-25T04:43:16.578Z,74.5
2018-06-25T04:44:16.834Z,74.3
2018-06-25T04:45:17.101Z,74.3
2018-06-25T04:46:16.356Z,74.3
2018-06-25T04:47:16.619Z,74.5
2018-06-25T04:48:16.881Z,74.4
2018-06-25T04:49:17.142Z,74.3
2018-06-25T04:50:16.421Z,74.5
2018-06-25T04:51:16.516Z,74.3
2018-06-25T04:52:16.789Z,74.0
2018-06-25T04:53:17.044Z,73.8
2018-06-25T04:54:16.304Z,74.2
2018-06-25T04:55:16.566Z,73.9
2018-06-25T04:56:16.828Z,73.6
2018-06-25T04:57:17.090Z,73.8
2018-06-25T04:58:16.347Z,73.8
2018-06-25T04:59:16.605Z,73.8
2018-06-25T05:00:16.885Z,73.8
2018-06-25T05:01:17.067Z,73.7
2018-06-25T05:02:16.359Z,73.9
2018-06-25T05:03:16.624Z,73.9
2018-06-25T05:04:16.889Z,73.3
2018-06-25T05:05:17.164Z,73.1
2018-06-25T05:06:16.419Z,73.8
2018-06-25T05:07:16.682Z,73.2
2018-06-25T05:08:16.947Z,72.8
2018-06-25T05:09:17.211Z,72.7
2018-06-25T05:10:16.482Z,72.7
2018-06-25T05:11:16.515Z,72.3
2018-06-25T05:12:16.769Z,72.4
2018-06-25T05:13:17.026Z,72.0
2018-06-25T05:14:16.291Z,72.2
2018-06-25T05:15:16.559Z,72.1
2018-06-25T05:16:16.819Z,71.6
2018-06-25T05:17:17.075Z,71.6
2018-06-25T05:18:16.332Z,71.6
2018-06-25T05:19:16.598Z,71.2
2018-06-25T05:20:16.873Z,71.4
2018-06-25T05:21:16.906Z,71.4
2018-06-25T05:22:17.172Z,71.3
2018-06-25T05:23:16.434Z,70.8
2018-06-25T05:24:16.702Z,71.0
2018-06-25T05:25:16.964Z,70.6
2018-06-25T05:26:17.226Z,70.8
2018-06-25T05:27:16.679Z,70.0
2018-06-25T05:28:16.943Z,70.0
2018-06-25T05:29:17.556Z,69.5
2018-06-25T05:30:16.841Z,69.5
2018-06-25T05:31:16.889Z,69.2
2018-06-25T05:32:17.148Z,68.7
2018-06-25T05:33:16.418Z,68.5
2018-06-25T05:34:16.681Z,68.4
2018-06-25T05:35:16.964Z,68.4
2018-06-25T05:36:17.260Z,68.3
2018-06-25T05:37:16.538Z,68.0
2018-06-25T05:38:16.803Z,67.9
2018-06-25T05:39:17.062Z,67.9
2018-06-25T05:40:16.329Z,67.8
2018-06-25T05:41:16.376Z,66.6
2018-06-25T05:42:16.631Z,66.5
2018-06-25T05:43:16.896Z,66.8
2018-06-25T05:44:17.168Z,67.5
2018-06-25T05:45:16.435Z,67.3
2018-06-25T05:46:16.702Z,67.5
2018-06-25T05:47:16.968Z,68.0
2018-06-25T05:48:17.225Z,67.8
2018-06-25T05:49:16.483Z,68.0
2018-06-25T05:50:16.752Z,68.1
2018-06-25T05:51:16.781Z,68.1
2018-06-25T05:52:17.039Z,68.6
2018-06-25T05:53:16.295Z,69.0
2018-06-25T05:54:16.558Z,68.8
2018-06-25T05:55:16.813Z,68.8
2018-06-25T05:56:17.088Z,68.6
2018-06-25T05:57:16.350Z,68.8
2018-06-25T05:58:16.608Z,68.8
2018-06-25T05:59:16.868Z,68.5
2018-06-25T06:00:17.158Z,68.8
2018-06-25T06:01:17.199Z,68.2
2018-06-25T06:02:16.466Z,67.8
2018-06-25T06:03:16.727Z,67.8
2018-06-25T06:04:16.986Z,68.1
2018-06-25T06:05:17.254Z,67.7
2018-06-25T06:06:16.514Z,67.5
2018-06-25T06:07:16.768Z,67.0
2018-06-25T06:08:17.028Z,67.2
2018-06-25T06:09:16.301Z,66.8
2018-06-25T06:10:16.574Z,66.3
2018-06-25T06:11:16.607Z,66.7
2018-06-25T06:12:16.872Z,66.3
2018-06-25T06:13:17.135Z,66.4
2018-06-25T06:14:16.400Z,66.0
2018-06-25T06:15:16.678Z,66.2
2018-06-25T06:16:16.945Z,66.2
2018-06-25T06:17:17.296Z,66.3
2018-06-25T06:18:16.569Z,66.8
2018-06-25T06:19:16.831Z,66.2
2018-06-25T06:20:17.095Z,66.8
2018-06-25T06:21:17.155Z,66.8
2018-06-25T06:22:16.424Z,67.0
2018-06-25T06:23:16.688Z,67.2
2018-06-25T06:24:16.950Z,66.0
2018-06-25T06:25:17.209Z,65.8
2018-06-25T06:26:16.491Z,65.4
2018-06-25T06:27:16.765Z,66.3
2018-06-25T06:28:17.029Z,66.6
2018-06-25T06:29:16.295Z,67.2
2018-06-25T06:30:16.561Z,67.7
2018-06-25T06:31:16.605Z,68.0
2018-06-25T06:32:16.861Z,68.2
2018-06-25T06:33:17.123Z,68.1
2018-06-25T06:34:16.407Z,68.3
2018-06-25T06:35:16.668Z,68.5
2018-06-25T06:36:16.922Z,68.5
2018-06-25T06:37:17.196Z,68.5
2018-06-25T06:38:16.458Z,68.0
2018-06-25T06:39:16.721Z,68.2
2018-06-25T06:40:16.998Z,68.8
2018-06-25T06:41:17.020Z,68.6
2018-06-25T06:42:16.276Z,68.9
2018-06-25T06:43:16.532Z,68.7
2018-06-25T06:44:16.784Z,68.7
2018-06-25T06:45:17.057Z,69.0
2018-06-25T06:46:16.320Z,69.1
2018-06-25T06:47:16.576Z,69.5
2018-06-25T06:48:16.840Z,69.6
2018-06-25T06:49:17.100Z,69.5
2018-06-25T06:50:16.362Z,69.3
2018-06-25T06:51:16.419Z,68.4
2018-06-25T06:52:16.688Z,68.2
2018-06-25T06:53:16.954Z,68.4
2018-06-25T06:54:17.219Z,69.0
2018-06-25T06:55:16.486Z,68.7
2018-06-25T06:56:16.738Z,68.9
2018-06-25T06:57:16.996Z,68.8
2018-06-25T06:58:16.261Z,68.8
2018-06-25T06:59:16.526Z,68.5
2018-06-25T07:00:16.801Z,68.7
2018-06-25T07:01:16.840Z,68.5
2018-06-25T07:02:17.098Z,68.8
2018-06-25T07:03:16.355Z,69.2
2018-06-25T07:04:16.615Z,70.1
2018-06-25T07:05:16.877Z,68.9
2018-06-25T07:06:17.151Z,69.0
2018-06-25T07:07:16.418Z,69.0
2018-06-25T07:08:16.680Z,68.9
2018-06-25T07:09:16.951Z,68.5
2018-06-25T07:10:17.324Z,68.3
2018-06-25T07:11:16.262Z,68.4
2018-06-25T07:12:16.529Z,68.7
2018-06-25T07:13:16.790Z,69.0
2018-06-25T07:14:17.083Z,68.2
2018-06-25T07:15:16.353Z,67.5
2018-06-25T07:16:16.626Z,67.0
2018-06-25T07:17:16.889Z,65.5
2018-06-25T07:18:17.149Z,63.0
2018-06-25T07:19:16.417Z,62.8
2018-06-25T07:20:16.685Z,62.1
2018-06-25T07:21:16.755Z,61.6
2018-06-25T07:22:17.017Z,60.7
2018-06-25T07:23:16.274Z,60.8
2018-06-25T07:24:16.540Z,59.1
2018-06-25T07:25:16.805Z,59.0
2018-06-25T07:26:17.069Z,58.2
2018-06-25T07:27:16.335Z,57.2
2018-06-25T07:28:16.596Z,56.5
2018-06-25T07:29:17.110Z,58.8
2018-06-25T07:30:16.404Z,57.9
2018-06-25T07:31:16.461Z,57.2
2018-06-25T07:32:16.714Z,56.5
2018-06-25T07:33:16.989Z,56.7
2018-06-25T07:34:17.246Z,54.3
2018-06-25T07:35:16.513Z,54.2
2018-06-25T07:36:16.775Z,55.2
2018-06-25T07:37:17.040Z,53.0
2018-06-25T07:38:16.305Z,52.6
2018-06-25T07:39:16.573Z,53.4
2018-06-25T07:40:16.846Z,53.9
2018-06-25T07:41:16.899Z,52.2
2018-06-25T07:42:17.162Z,51.5
2018-06-25T07:43:16.422Z,51.2
2018-06-25T07:44:16.683Z,50.2
2018-06-25T07:45:16.945Z,49.1
2018-06-25T07:46:17.209Z,48.4
2018-06-25T07:47:16.687Z,48.7
2018-06-25T07:48:17.039Z,48.3
2018-06-25T07:49:16.360Z,48.6
2018-06-25T07:50:16.634Z,50.0
2018-06-25T07:51:16.672Z,51.5
2018-06-25T07:52:16.943Z,51.0
2018-06-25T07:53:17.421Z,50.8
2018-06-25T07:54:16.760Z,52.2
2018-06-25T07:55:17.030Z,53.3
2018-06-25T07:56:16.292Z,53.9
2018-06-25T07:57:16.550Z,54.1
2018-06-25T07:58:16.812Z,55.2
2018-06-25T07:59:17.073Z,55.6
2018-06-25T08:00:16.353Z,56.3
2018-06-25T08:01:16.387Z,57.4
2018-06-25T08:02:16.647Z,58.0
2018-06-25T08:03:16.906Z,60.0
2018-06-25T08:04:17.160Z,59.5
2018-06-25T08:05:16.439Z,59.5
2018-06-25T08:06:16.696Z,58.8
2018-06-25T08:07:16.963Z,58.5
2018-06-25T08:08:17.232Z,59.2
2018-06-25T08:09:16.496Z,59.4
2018-06-25T08:10:16.857Z,60.5
2018-06-25T08:11:16.816Z,60.6
2018-06-25T08:12:17.085Z,60.5
2018-06-25T08:13:16.337Z,60.0
2018-06-25T08:14:16.598Z,60.0
2018-06-25T08:15:16.863Z,60.0
2018-06-25T08:16:17.181Z,57.0
2018-06-25T08:17:16.456Z,57.0
2018-06-25T08:18:16.711Z,56.5
2018-06-25T08:19:16.969Z,54.5
2018-06-25T08:20:17.319Z,53.8
2018-06-25T08:21:16.280Z,55.8
2018-06-25T08:22:16.545Z,54.4
2018-06-25T08:23:16.809Z,54.0
2018-06-25T08:24:17.071Z,53.3
2018-06-25T08:25:16.329Z,52.9
2018-06-25T08:26:16.605Z,54.0
2018-06-25T08:27:16.867Z,52.5
2018-06-25T08:28:17.126Z,52.5
2018-06-25T08:29:16.388Z,53.0
2018-06-25T08:30:16.654Z,52.5
2018-06-25T08:31:16.694Z,51.9
2018-06-25T08:32:16.957Z,52.0
2018-06-25T08:33:17.221Z,51.8
2018-06-25T08:34:16.682Z,51.7
2018-06-25T08:35:17.101Z,53.9
2018-06-25T08:36:16.356Z,52.6
2018-06-25T08:37:16.611Z,49.7
2018-06-25T08:38:16.875Z,49.8
2018-06-25T08:39:17.139Z,49.0
2018-06-25T08:40:16.604Z,49.5
2018-06-25T08:41:16.448Z,50.0
2018-06-25T08:42:16.714Z,49.3
2018-06-25T08:43:17.043Z,49.5
2018-06-25T08:44:16.306Z,48.5
2018-06-25T08:45:16.566Z,48.0
2018-06-25T08:46:16.828Z,48.8
2018-06-25T08:47:17.096Z,48.5
2018-06-25T08:48:16.352Z,50.1
2018-06-25T08:49:16.607Z,51.0
2018-06-25T08:50:16.874Z,50.3
2018-06-25T08:51:16.911Z,50.4
2018-06-25T08:52:17.173Z,51.8
2018-06-25T08:53:16.433Z,52.9
2018-06-25T08:54:16.703Z,52.9
2018-06-25T08:55:16.984Z,53.9
2018-06-25T08:56:17.242Z,54.0
2018-06-25T08:57:16.499Z,54.1
2018-06-25T08:58:16.767Z,54.4
2018-06-25T08:59:17.027Z,56.7
2018-06-25T09:00:16.297Z,56.9
2018-06-25T09:01:16.377Z,57.3
2018-06-25T09:02:16.643Z,57.0
2018-06-25T09:03:17.261Z,57.4
2018-06-25T09:04:16.655Z,57.5
2018-06-25T09:05:17.100Z,57.2
2018-06-25T09:06:16.446Z,57.1
2018-06-25T09:07:16.711Z,57.5
2018-06-25T09:08:16.976Z,57.3
2018-06-25T09:09:17.247Z,57.7
2018-06-25T09:10:16.528Z,56.7
2018-06-25T09:11:16.567Z,56.9
2018-06-25T09:12:16.820Z,57.2
2018-06-25T09:13:17.081Z,56.6
2018-06-25T09:14:16.344Z,55.6
2018-06-25T09:15:16.848Z,56.1
2018-06-25T09:16:17.150Z,56.2
2018-06-25T09:17:16.406Z,56.4
2018-06-25T09:18:16.670Z,56.2
2018-06-25T09:19:16.930Z,55.2
2018-06-25T09:20:17.199Z,55.0
2018-06-25T09:21:17.239Z,56.0
2018-06-25T09:22:16.508Z,56.9
2018-06-25T09:23:16.764Z,56.5
2018-06-25T09:24:17.026Z,54.8
2018-06-25T09:25:16.426Z,53.9
2018-06-25T09:26:16.694Z,53.9
2018-06-25T09:27:16.950Z,53.4
2018-06-25T09:28:17.211Z,52.4
2018-06-25T09:29:16.468Z,51.4
2018-06-25T09:30:16.742Z,53.0
2018-06-25T09:31:16.780Z,51.5
2018-06-25T09:32:17.048Z,51.6
2018-06-25T09:33:16.313Z,50.7
2018-06-25T09:34:16.578Z,53.2
2018-06-25T09:35:16.982Z,54.4
2018-06-25T09:36:16.254Z,54.5
2018-06-25T09:37:16.515Z,54.6
2018-06-25T09:38:16.780Z,55.1
2018-06-25T09:39:17.041Z,55.6
2018-06-25T09:40:16.307Z,57.0
2018-06-25T09:41:16.713Z,57.0
2018-06-25T09:42:17.004Z,56.5
2018-06-25T09:43:16.269Z,56.0
2018-06-25T09:44:16.536Z,56.2
2018-06-25T09:45:16.799Z,55.6
2018-06-25T09:46:17.069Z,55.7
2018-06-25T09:47:16.339Z,56.0
2018-06-25T09:48:16.596Z,56.0
2018-06-25T09:49:16.849Z,55.5
2018-06-25T09:50:17.158Z,56.2
2018-06-25T09:51:17.149Z,56.0
2018-06-25T09:52:16.405Z,56.1
2018-06-25T09:53:16.660Z,54.5
2018-06-25T09:54:16.923Z,55.2
2018-06-25T09:55:17.185Z,54.9
2018-06-25T09:56:16.443Z,53.3
2018-06-25T09:57:16.708Z,53.3
2018-06-25T09:58:16.976Z,52.1
2018-06-25T09:59:17.245Z,52.8
2018-06-25T10:00:16.525Z,52.4
2018-06-25T10:01:16.563Z,52.4
2018-06-25T10:02:16.821Z,52.7
2018-06-25T10:03:17.082Z,52.8
2018-06-25T10:04:16.345Z,53.0
2018-06-25T10:05:16.597Z,53.1
2018-06-25T10:06:16.870Z,52.8
2018-06-25T10:07:17.138Z,52.1
2018-06-25T10:08:16.393Z,50.8
2018-06-25T10:09:16.654Z,50.0
2018-06-25T10:10:16.924Z,49.8
2018-06-25T10:11:16.988Z,48.0
2018-06-25T10:12:17.245Z,47.4
2018-06-25T10:13:16.512Z,46.2
2018-06-25T10:14:16.772Z,45.1
2018-06-25T10:15:17.032Z,45.0
2018-06-25T10:16:16.301Z,44.1
2018-06-25T10:17:16.561Z,43.8
2018-06-25T10:18:16.822Z,43.3
2018-06-25T10:19:17.085Z,43.2
2018-06-25T10:20:16.361Z,44.2
2018-06-25T10:21:16.535Z,44.6
2018-06-25T10:22:16.801Z,43.2
2018-06-25T10:23:17.059Z,43.2
2018-06-25T10:24:16.332Z,43.7
2018-06-25T10:25:16.595Z,43.8
2018-06-25T10:26:16.858Z,44.8
2018-06-25T10:27:17.116Z,44.8
2018-06-25T10:28:16.376Z,46.6
2018-06-25T10:29:16.639Z,45.9
2018-06-25T10:30:16.897Z,46.0
2018-06-25T10:31:16.930Z,44.7
2018-06-25T10:32:17.203Z,45.0
2018-06-25T10:33:16.473Z,44.8
2018-06-25T10:34:16.729Z,46.6
2018-06-25T10:35:16.994Z,44.9
2018-06-25T10:36:16.253Z,45.8
2018-06-25T10:37:16.516Z,45.1
2018-06-25T10:38:16.775Z,43.6
2018-06-25T10:39:17.037Z,42.6
2018-06-25T10:40:16.312Z,42.5
2018-06-25T10:41:16.352Z,43.2
2018-06-25T10:42:16.701Z,43.2
2018-06-25T10:43:16.987Z,45.9
2018-06-25T10:44:17.256Z,44.6
2018-06-25T10:45:16.525Z,45.4
2018-06-25T10:46:16.779Z,46.5
2018-06-25T10:47:17.042Z,45.5
2018-06-25T10:48:16.307Z,45.4
2018-06-25T10:49:16.565Z,45.0
2018-06-25T10:50:16.853Z,45.1
2018-06-25T10:51:16.875Z,44.4
2018-06-25T10:52:17.132Z,40.7
2018-06-25T10:53:16.389Z,40.5
2018-06-25T10:54:16.655Z,40.6
2018-06-25T10:55:16.930Z,44.1
2018-06-25T10:56:17.197Z,42.2
2018-06-25T10:57:16.462Z,40.6
2018-06-25T10:58:16.737Z,41.0
2018-06-25T10:59:16.988Z,40.7
2018-06-25T11:00:16.750Z,41.9
2018-06-25T11:01:16.301Z,42.2
2018-06-25T11:02:16.612Z,43.0
2018-06-25T11:03:16.878Z,43.9
2018-06-25T11:04:17.140Z,44.0
2018-06-25T11:05:16.402Z,43.2
2018-06-25T11:06:16.669Z,44.3
2018-06-25T11:07:17.447Z,43.5
2018-06-25T11:08:16.740Z,44.9
2018-06-25T11:09:17.022Z,43.4
2018-06-25T11:10:16.294Z,43.9
2018-06-25T11:11:16.359Z,44.0
2018-06-25T11:12:16.623Z,45.1
2018-06-25T11:13:16.883Z,44.1
2018-06-25T11:14:17.165Z,43.2
2018-06-25T11:15:16.426Z,44.1
2018-06-25T11:16:16.689Z,44.2
2018-06-25T11:17:16.949Z,43.2
2018-06-25T11:18:17.216Z,43.6
2018-06-25T11:19:16.483Z,44.6
2018-06-25T11:20:16.754Z,43.4
2018-06-25T11:21:16.801Z,43.1
2018-06-25T11:22:17.066Z,43.1
2018-06-25T11:23:16.329Z,44.1
2018-06-25T11:24:16.595Z,44.0
2018-06-25T11:25:16.866Z,43.1
2018-06-25T11:26:17.131Z,43.6
2018-06-25T11:27:16.554Z,43.5
2018-06-25T11:28:16.885Z,43.2
2018-06-25T11:29:17.146Z,42.8
2018-06-25T11:30:16.417Z,43.6
2018-06-25T11:31:16.464Z,43.0
2018-06-25T11:32:16.723Z,43.5
2018-06-25T11:33:16.977Z,43.3
2018-06-25T11:34:17.245Z,43.0
2018-06-25T11:35:16.509Z,43.0
2018-06-25T11:36:16.764Z,43.6
2018-06-25T11:37:17.030Z,43.2
2018-06-25T11:38:16.295Z,43.5
2018-06-25T11:39:16.564Z,43.2
2018-06-25T11:40:16.830Z,43.5
2018-06-25T11:41:16.866Z,44.1
2018-06-25T11:42:17.133Z,44.7
2018-06-25T11:43:16.412Z,44.2
2018-06-25T11:44:16.677Z,44.5
2018-06-25T11:45:16.954Z,45.0
2018-06-25T11:46:17.218Z,44.6
2018-06-25T11:47:16.480Z,45.4
2018-06-25T11:48:16.740Z,44.4
2018-06-25T11:49:17.000Z,44.8
2018-06-25T11:50:16.257Z,43.9
2018-06-25T11:51:16.309Z,43.9
2018-06-25T11:52:16.570Z,43.6
2018-06-25T11:53:16.824Z,42.8
2018-06-25T11:54:17.090Z,42.8
2018-06-25T11:55:16.367Z,42.6
2018-06-25T11:56:16.629Z,43.2
2018-06-25T11:57:16.892Z,42.8
2018-06-25T11:58:17.158Z,41.5
2018-06-25T11:59:16.476Z,41.3
2018-06-25T12:00:16.756Z,42.8
2018-06-25T12:01:16.789Z,43.0
2018-06-25T12:02:17.042Z,43.5
2018-06-25T12:03:16.911Z,44.0
2018-06-25T12:04:16.357Z,43.9
2018-06-25T12:05:16.624Z,44.4
2018-06-25T12:06:16.884Z,44.6
2018-06-25T12:07:17.169Z,44.5
2018-06-25T12:08:16.445Z,44.8
2018-06-25T12:09:16.704Z,45.0
2018-06-25T12:10:16.972Z,45.2
2018-06-25T12:11:17.017Z,44.5
2018-06-25T12:12:16.286Z,44.2
2018-06-25T12:13:16.871Z,43.9
2018-06-25T12:14:17.515Z,42.5
2018-06-25T12:15:16.802Z,43.5
2018-06-25T12:16:17.113Z,43.4
2018-06-25T12:17:16.387Z,43.5
2018-06-25T12:18:16.660Z,44.2
2018-06-25T12:19:16.920Z,43.2
2018-06-25T12:20:17.197Z,44.0
2018-06-25T12:21:17.229Z,43.5
2018-06-25T12:22:16.504Z,43.0
2018-06-25T12:23:16.768Z,43.8
2018-06-25T12:24:17.024Z,43.8
2018-06-25T12:25:16.293Z,43.6
2018-06-25T12:26:16.568Z,43.7
2018-06-25T12:27:16.837Z,44.0
2018-06-25T12:28:17.119Z,44.0
2018-06-25T12:29:16.399Z,44.2
2018-06-25T12:30:16.681Z,43.8
2018-06-25T12:31:16.708Z,45.1
2018-06-25T12:32:16.972Z,44.0
2018-06-25T12:33:17.254Z,44.6
2018-06-25T12:34:16.516Z,44.9
2018-06-25T12:35:16.784Z,44.8
2018-06-25T12:36:17.042Z,45.4
2018-06-25T12:37:16.308Z,45.2
2018-06-25T12:38:16.575Z,44.2
2018-06-25T12:39:16.836Z,44.5
2018-06-25T12:40:17.101Z,44.0
2018-06-25T12:41:17.137Z,44.3
2018-06-25T12:42:16.405Z,43.2
2018-06-25T12:43:16.789Z,43.7
2018-06-25T12:44:17.053Z,44.3
2018-06-25T12:45:16.322Z,44.2
2018-06-25T12:46:16.585Z,43.7
2018-06-25T12:47:16.849Z,43.0
2018-06-25T12:48:17.181Z,43.5
2018-06-25T12:49:16.452Z,43.0
2018-06-25T12:50:16.719Z,42.4
2018-06-25T12:51:16.781Z,42.2
2018-06-25T12:52:17.037Z,42.3
2018-06-25T12:53:16.301Z,43.0
2018-06-25T12:54:16.563Z,42.5
2018-06-25T12:55:16.832Z,42.2
2018-06-25T12:56:17.089Z,41.5
2018-06-25T12:57:16.354Z,42.2
2018-06-25T12:58:16.616Z,41.5
2018-06-25T12:59:16.875Z,40.9
2018-06-25T13:00:17.157Z,40.8
2018-06-25T13:01:17.204Z,41.0
2018-06-25T13:02:16.470Z,41.4
2018-06-25T13:03:16.738Z,41.8
2018-06-25T13:04:16.983Z,41.5
2018-06-25T13:05:17.448Z,42.2
2018-06-25T13:06:16.715Z,42.2
2018-06-25T13:07:16.977Z,41.6
2018-06-25T13:08:17.238Z,41.1
2018-06-25T13:09:16.505Z,41.4
2018-06-25T13:10:16.775Z,41.7
2018-06-25T13:11:16.834Z,42.0
2018-06-25T13:12:17.117Z,42.2
2018-06-25T13:13:16.376Z,42.4
2018-06-25T13:14:16.636Z,42.0
2018-06-25T13:15:16.908Z,42.3
2018-06-25T13:16:17.180Z,43.3
2018-06-25T13:17:16.459Z,43.5
2018-06-25T13:18:16.844Z,43.2